createdAt,value
2018-11-14T00:04:33.543Z,11.80
2018-11-14T00:09:37.781Z,11.80
2018-11-14T00:14:41.426Z,11.80
2018-11-14T00:19:45.321Z,11.80
2018-11-14T00:24:49.639Z,11.80
2018-11-14T00:29:54.149Z,11.70
2018-11-14T00:34:58.677Z,11.70
2018-11-14T00:40:02.324Z,11.70
2018-11-14T00:45:07.860Z,11.70
2018-11-14T00:50:13.037Z,11.70
2018-11-14T00:55:18.546Z,11.70
2018-11-14T01:00:23.789Z,11.70
2018-11-14T01:05:27.866Z,11.60
2018-11-14T01:10:31.983Z,11.60
2018-11-14T01:15:36.078Z,11.60
2018-11-14T01:20:39.982Z,11.70
2018-11-14T01:25:43.998Z,11.70
2018-11-14T01:30:48.133Z,11.70
2018-11-14T01:35:52.169Z,11.70
2018-11-14T01:40:56.137Z,11.70
2018-11-14T01:46:00.015Z,11.70
2018-11-14T01:51:03.637Z,11.60
2018-11-14T01:56:07.495Z,11.60
2018-11-14T02:01:11.634Z,11.60
2018-11-14T02:06:16.071Z,11.60
2018-11-14T02:11:19.699Z,11.50
2018-11-14T02:16:23.689Z,11.40
2018-11-14T02:21:27.311Z,11.30
2018-11-14T02:26:31.051Z,11.30
2018-11-14T02:31:34.794Z,11.20
2018-11-14T02:36:38.470Z,11.00
2018-11-14T02:41:42.171Z,11.00
2018-11-14T02:46:46.536Z,11.00
2018-11-14T02:51:50.403Z,11.00
2018-11-14T02:56:54.076Z,11.00
2018-11-14T03:01:57.854Z,10.90
2018-11-14T03:07:01.560Z,10.80
2018-11-14T03:12:05.617Z,10.90
2018-11-14T03:17:09.498Z,11.00
2018-11-14T03:22:13.321Z,11.00
2018-11-14T03:27:17.627Z,11.10
2018-11-14T03:32:21.241Z,11.10
2018-11-14T03:37:25.005Z,11.10
2018-11-14T03:42:28.992Z,11.10
2018-11-14T03:47:32.515Z,11.10
2018-11-14T03:52:36.188Z,11.10
2018-11-14T03:57:39.804Z,11.00
2018-11-14T04:02:45.047Z,10.90
2018-11-14T04:07:48.727Z,10.80
2018-11-14T04:12:52.784Z,10.70
2018-11-14T04:17:56.685Z,10.70
2018-11-14T04:23:00.577Z,10.60
2018-11-14T04:28:04.436Z,10.60
2018-11-14T04:33:08.230Z,10.70
2018-11-14T04:38:12.022Z,10.70
2018-11-14T04:43:15.779Z,10.70
2018-11-14T04:48:19.523Z,10.70
2018-11-14T04:53:23.350Z,10.70
2018-11-14T04:58:26.982Z,10.80
2018-11-14T05:03:30.803Z,10.80
2018-11-14T05:08:34.934Z,10.80
2018-11-14T05:13:38.565Z,10.80
2018-11-14T05:18:42.274Z,10.80
2018-11-14T05:23:45.974Z,10.80
2018-11-14T05:28:49.791Z,10.80
2018-11-14T05:33:53.667Z,10.70
2018-11-14T05:38:57.622Z,10.70
2018-11-14T05:44:01.593Z,10.70
2018-11-14T05:49:05.437Z,10.70
2018-11-14T05:54:10.075Z,10.70
2018-11-14T05:59:14.086Z,10.70
2018-11-14T06:09:53.661Z,10.70
2018-11-14T06:14:57.714Z,10.70
2018-11-14T06:20:01.740Z,10.70
2018-11-14T06:25:17.216Z,10.70
2018-11-14T06:30:21.652Z,10.70
2018-11-14T06:35:25.385Z,10.60
2018-11-14T06:40:29.612Z,10.60
2018-11-14T06:45:33.831Z,10.60
2018-11-14T06:50:37.919Z,10.70
2018-11-14T06:55:42.080Z,10.60
2018-11-14T07:00:55.847Z,10.70
2018-11-14T07:05:59.921Z,10.70
2018-11-14T07:11:13.868Z,10.70
2018-11-14T07:16:17.880Z,10.70
2018-11-14T07:21:21.695Z,10.80
2018-11-14T07:26:25.790Z,10.80
2018-11-14T07:31:29.399Z,10.70
2018-11-14T07:36:33.233Z,10.70
2018-11-14T07:41:38.511Z,10.80
2018-11-14T07:46:42.278Z,10.80
2018-11-14T07:51:46.190Z,10.70
2018-11-14T07:56:50.195Z,10.70
2018-11-14T08:01:53.943Z,10.70
2018-11-14T08:06:58.344Z,10.80
2018-11-14T08:12:02.378Z,10.80
2018-11-14T08:17:06.564Z,10.80
2018-11-14T08:22:11.146Z,10.70
2018-11-14T08:27:15.161Z,10.60
2018-11-14T08:32:19.239Z,10.70
2018-11-14T08:37:23.233Z,10.80
2018-11-14T08:42:27.542Z,11.00
2018-11-14T08:47:31.336Z,11.10
2018-11-14T08:52:34.983Z,11.20
2018-11-14T08:57:39.707Z,11.30
2018-11-14T09:02:44.043Z,11.40
2018-11-14T09:07:48.395Z,11.50
2018-11-14T09:12:52.688Z,11.60
2018-11-14T09:17:56.814Z,11.60
2018-11-14T09:23:00.686Z,11.70
2018-11-14T09:28:04.491Z,11.80
2018-11-14T09:33:08.321Z,11.90
2018-11-14T09:38:12.039Z,12.00
2018-11-14T09:43:16.386Z,12.10
2018-11-14T09:48:20.144Z,12.20
2018-11-14T09:53:23.952Z,12.30
2018-11-14T09:58:28.291Z,12.40
2018-11-14T10:03:32.440Z,12.50
2018-11-14T10:08:36.622Z,12.50
2018-11-14T10:13:40.741Z,12.50
2018-11-14T10:18:44.914Z,12.60
2018-11-14T10:23:48.508Z,12.70
2018-11-14T10:28:52.328Z,12.70
2018-11-14T10:33:56.365Z,12.80
2018-11-14T10:39:00.396Z,12.90
2018-11-14T10:44:04.436Z,13.00
2018-11-14T10:49:08.559Z,13.10
2018-11-14T10:54:12.218Z,13.20
2018-11-14T10:59:16.271Z,13.30
2018-11-14T11:04:25.292Z,13.40
2018-11-14T11:09:34.235Z,13.60
2018-11-14T11:14:43.499Z,13.70
2018-11-14T11:19:47.149Z,13.80
2018-11-14T11:24:51.470Z,13.90
2018-11-14T11:29:55.612Z,14.00
2018-11-14T11:35:00.118Z,14.20
2018-11-14T11:40:04.322Z,14.30
2018-11-14T11:45:08.545Z,14.40
2018-11-14T11:50:12.909Z,14.50
2018-11-14T11:55:16.945Z,14.60
2018-11-14T12:00:20.729Z,14.60
2018-11-14T12:05:24.475Z,14.70
2018-11-14T12:10:28.474Z,14.70
2018-11-14T12:15:32.289Z,14.80
2018-11-14T12:20:36.365Z,14.90
2018-11-14T12:25:40.477Z,14.90
2018-11-14T12:30:45.148Z,15.00
2018-11-14T12:35:48.878Z,15.00
2018-11-14T12:40:52.830Z,15.10
2018-11-14T12:45:56.456Z,15.20
2018-11-14T12:51:00.430Z,15.30
2018-11-14T12:56:04.171Z,15.30
2018-11-14T13:01:08.070Z,15.40
2018-11-14T13:06:12.146Z,15.40
2018-11-14T13:11:15.873Z,15.40
2018-11-14T13:16:19.957Z,15.50
2018-11-14T13:21:23.815Z,15.40
2018-11-14T13:26:27.815Z,15.50
2018-11-14T13:31:32.211Z,15.50
2018-11-14T13:36:36.786Z,15.50
2018-11-14T13:41:41.217Z,15.50
2018-11-14T13:46:45.130Z,15.40
2018-11-14T13:51:49.082Z,15.40
2018-11-14T13:56:52.962Z,15.30
2018-11-14T14:01:56.892Z,15.20
2018-11-14T14:07:00.714Z,15.20
2018-11-14T14:12:04.986Z,15.20
2018-11-14T14:17:08.872Z,15.10
2018-11-14T14:22:12.831Z,15.00
2018-11-14T14:27:16.347Z,15.00
2018-11-14T14:32:20.125Z,14.90
2018-11-14T14:37:23.698Z,14.90
2018-11-14T14:42:27.743Z,14.90
2018-11-14T14:47:31.678Z,14.80
2018-11-14T14:52:35.845Z,14.80
2018-11-14T14:57:40.241Z,14.80
2018-11-14T15:02:44.115Z,14.70
2018-11-14T15:07:48.172Z,14.60
2018-11-14T15:12:52.008Z,14.60
2018-11-14T15:17:56.231Z,14.50
2018-11-14T15:23:00.221Z,14.40
2018-11-14T15:28:03.909Z,14.40
2018-11-14T15:33:07.528Z,14.30
2018-11-14T15:38:11.318Z,14.20
2018-11-14T15:43:15.049Z,14.00
2018-11-14T15:48:18.811Z,13.90
2018-11-14T15:53:22.704Z,13.80
2018-11-14T15:58:26.731Z,13.70
2018-11-14T16:03:30.451Z,13.50
2018-11-14T16:08:34.254Z,13.30
2018-11-14T16:13:38.094Z,13.10
2018-11-14T16:18:41.884Z,12.80
2018-11-14T16:23:46.151Z,12.60
2018-11-14T16:28:49.793Z,12.40
2018-11-14T16:33:53.479Z,12.30
2018-11-14T16:38:57.009Z,12.10
2018-11-14T16:44:00.805Z,11.90
2018-11-14T16:49:04.566Z,11.80
2018-11-14T16:54:08.298Z,11.70
2018-11-14T16:59:12.186Z,11.60
2018-11-14T17:04:16.338Z,11.50
2018-11-14T17:09:20.171Z,11.30
2018-11-14T17:14:27.887Z,11.20
2018-11-14T17:19:31.795Z,11.10
2018-11-14T17:24:35.530Z,11.00
2018-11-14T17:29:39.254Z,10.80
2018-11-14T17:34:42.992Z,10.80
2018-11-14T17:39:46.873Z,10.70
2018-11-14T17:44:51.808Z,10.60
2018-11-14T17:49:55.522Z,10.50
2018-11-14T17:54:59.968Z,10.40
2018-11-14T18:00:04.831Z,10.30
2018-11-14T18:05:10.423Z,10.30
2018-11-14T18:10:15.169Z,10.20
2018-11-14T18:15:19.056Z,10.10
2018-11-14T18:20:24.711Z,10.00
2018-11-14T18:25:28.843Z,10.00
2018-11-14T18:30:33.303Z,9.90
2018-11-14T18:35:37.521Z,9.80
2018-11-14T18:40:41.493Z,9.70
2018-11-14T18:45:45.837Z,9.70
2018-11-14T18:50:49.634Z,9.60
2018-11-14T18:55:53.441Z,9.50
2018-11-14T19:00:58.239Z,9.50
2018-11-14T19:06:02.360Z,9.40
2018-11-14T19:11:06.781Z,9.30
2018-11-14T19:16:10.873Z,9.30
2018-11-14T19:21:15.171Z,9.20
2018-11-14T19:26:18.848Z,9.10
2018-11-14T19:31:23.161Z,9.10
2018-11-14T19:36:27.066Z,9.00
2018-11-14T19:41:30.770Z,8.90
2018-11-14T19:46:34.651Z,8.90
2018-11-14T19:51:38.625Z,8.80
2018-11-14T19:56:42.773Z,8.80
2018-11-14T20:01:47.314Z,8.70
2018-11-14T20:06:56.510Z,8.80
2018-11-14T20:12:00.092Z,8.80
2018-11-14T20:17:03.778Z,8.70
2018-11-14T20:22:08.006Z,8.70
2018-11-14T20:27:11.973Z,8.60
2018-11-14T20:32:16.073Z,8.60
2018-11-14T20:37:19.813Z,8.50
2018-11-14T20:42:23.986Z,8.50
2018-11-14T20:47:28.178Z,8.40
2018-11-14T20:52:32.303Z,8.30
2018-11-14T20:57:37.326Z,8.20
2018-11-14T21:02:41.862Z,8.10
2018-11-14T21:07:46.949Z,8.10
2018-11-14T21:12:51.616Z,8.00
2018-11-14T21:17:56.330Z,7.90
2018-11-14T21:23:00.644Z,7.90
2018-11-14T21:28:04.964Z,7.90
2018-11-14T21:33:09.234Z,7.80
2018-11-14T21:38:13.054Z,7.80
2018-11-14T21:43:17.297Z,7.70
2018-11-14T21:48:21.222Z,7.70
2018-11-14T21:53:29.765Z,7.70
2018-11-14T21:58:33.714Z,7.70
2018-11-14T22:04:01.610Z,7.70
2018-11-14T22:09:08.425Z,7.60
2018-11-14T22:14:12.654Z,7.60
2018-11-14T22:19:16.766Z,7.50
2018-11-14T22:24:25.613Z,7.50
2018-11-14T22:35:11.619Z,7.40
2018-11-14T22:40:17.145Z,7.40
2018-11-14T22:45:23.198Z,7.30
2018-11-14T22:50:27.380Z,7.20
2018-11-14T22:55:31.233Z,7.20
2018-11-14T23:00:40.781Z,7.10
2018-11-14T23:05:44.763Z,7.00
2018-11-14T23:10:48.663Z,7.00
2018-11-14T23:15:52.766Z,6.90
2018-11-14T23:20:56.809Z,6.90
2018-11-14T23:26:00.549Z,6.90
2018-11-14T23:31:04.375Z,6.80
2018-11-14T23:36:08.201Z,6.70
2018-11-14T23:41:12.255Z,6.70
2018-11-14T23:46:16.390Z,6.70
2018-11-14T23:51:20.695Z,6.60
2018-11-14T23:56:24.510Z,6.60
